Time;durP1;ratioP1;P1;durP2;ratioP2;P2;SDS_P1;SDS_P2;PMS_P1;PMS_P2;Temp;Humidity;BMP_temperature;BMP_pressure;BME280_temperature;BME280_humidity;BME280_pressure;Samples;Min_cycle;Max_cycle;Signal;HPM_P1;HPM_P2
2022/08/27 00:00:13;;;;;;;0.10;0.10;;;;;;;19.50;58.43;101886.47;5079440;28;20075;-77
2022/08/27 00:02:39;;;;;;;0.10;0.10;;;;;;;19.49;58.74;101895.47;5085881;28;20070;-77
2022/08/27 00:05:06;;;;;;;0.08;0.08;;;;;;;19.48;58.58;101890.16;5080110;28;20558;-76
2022/08/27 00:07:32;;;;;;;0.30;0.30;;;;;;;19.45;58.69;101890.28;5090491;28;20408;-77
2022/08/27 00:09:59;;;;;;;0.10;0.10;;;;;;;19.43;58.02;101884.97;5082745;28;20110;-77
2022/08/27 00:12:25;;;;;;;0.10;0.10;;;;;;;19.42;58.55;101883.22;5078725;28;20036;-77
2022/08/27 00:14:51;;;;;;;0.10;0.10;;;;;;;19.40;58.39;101888.66;5083556;28;20106;-77
2022/08/27 00:17:18;;;;;;;0.15;0.15;;;;;;;19.38;58.89;101885.16;5079181;28;20031;-77
2022/08/27 00:19:44;;;;;;;0.10;0.10;;;;;;;19.37;58.65;101880.69;5087011;28;20032;-76
2022/08/27 00:22:11;;;;;;;0.10;0.10;;;;;;;19.38;58.72;101881.59;5085826;28;20797;-77
2022/08/27 00:24:37;;;;;;;0.10;0.10;;;;;;;19.36;59.06;101873.56;5084578;28;20024;-77
2022/08/27 00:27:04;;;;;;;0.00;0.00;;;;;;;19.34;59.27;101875.47;5087004;28;20601;-78
2022/08/27 00:29:33;;;;;;;0.10;0.10;;;;;;;19.35;58.71;101873.63;5079089;28;20040;-77
2022/08/27 00:31:59;;;;;;;0.00;0.00;;;;;;;19.30;59.09;101870.28;5083208;28;20409;-77
2022/08/27 00:34:25;;;;;;;0.10;0.10;;;;;;;19.29;59.18;101865.81;5085293;28;20462;-77
2022/08/27 00:36:52;;;;;;;0.08;0.08;;;;;;;19.26;59.39;101864.16;5091822;28;20055;-77
2022/08/27 00:39:19;;;;;;;0.10;0.10;;;;;;;19.24;58.91;101871.41;5087901;28;20417;-77
2022/08/27 00:41:45;;;;;;;1.08;0.63;;;;;;;19.21;59.25;101863.47;5081760;28;20054;-77
2022/08/27 00:44:12;;;;;;;0.10;0.10;;;;;;;19.21;59.24;101874.19;5081254;28;20028;-77
2022/08/27 00:46:50;;;;;;;0.10;0.10;;;;;;;19.21;59.25;101872.38;5087722;28;20119;-77
2022/08/27 00:49:23;;;;;;;0.45;0.45;;;;;;;19.23;59.62;101873.19;5086768;28;20040;-77
2022/08/27 00:51:56;;;;;;;0.10;0.10;;;;;;;19.17;59.78;101869.91;5080736;28;20048;-77
2022/08/27 00:54:23;;;;;;;2.63;1.13;;;;;;;19.15;59.70;101871.75;5084164;28;20546;-79
2022/08/27 00:56:50;;;;;;;0.10;0.10;;;;;;;19.14;59.37;101870.91;5086216;28;20122;-77
2022/08/27 00:59:20;;;;;;;0.00;0.00;;;;;;;19.15;59.57;101869.06;5084173;28;20134;-77
2022/08/27 01:02:17;;;;;;;0.52;0.45;;;;;;;19.14;59.83;101870.91;5083986;28;20039;-77
2022/08/27 01:04:34;;;;;;;0.10;0.10;;;;;;;19.15;59.95;101869.06;5082303;28;20068;-77
2022/08/27 01:07:02;;;;;;;0.10;0.10;;;;;;;19.15;59.11;101869.06;5082961;28;20573;-78
2022/08/27 01:09:29;;;;;;;0.10;0.10;;;;;;;19.17;59.92;101884.19;5085845;28;20039;-78
2022/08/27 01:11:57;;;;;;;0.10;0.10;;;;;;;19.21;59.49;101874.19;5086244;28;20028;-76
2022/08/27 01:14:24;;;;;;;0.10;0.10;;;;;;;19.21;59.10;101876.88;5092123;28;20041;-77
2022/08/27 01:16:53;;;;;;;0.10;0.10;;;;;;;19.24;59.79;101883.03;5083292;28;20042;-78
2022/08/27 01:19:33;;;;;;;0.10;0.10;;;;;;;19.30;60.41;101879.22;5088835;28;20097;-76
2022/08/27 01:24:41;;;;;;;0.10;0.10;;;;;;;19.30;60.10;101872.97;5105991;27;20443;-76
2022/08/27 01:27:11;;;;;;;0.10;0.10;;;;;;;19.28;59.46;101870.34;5103094;28;20032;-76
2022/08/27 01:29:37;;;;;;;0.00;0.00;;;;;;;19.24;60.42;101880.34;5102744;28;20111;-75
2022/08/27 01:32:08;;;;;;;0.08;0.08;;;;;;;19.24;59.96;101879.47;5098760;28;20472;-76
2022/08/27 01:34:36;;;;;;;0.10;0.10;;;;;;;19.23;59.96;101877.72;5098663;28;20028;-77
2022/08/27 01:37:04;;;;;;;0.10;0.10;;;;;;;19.21;60.18;101874.19;5108239;28;20058;-77
2022/08/27 01:39:35;;;;;;;0.10;0.10;;;;;;;19.22;59.61;101881.34;5104308;28;20076;-78
2022/08/27 01:42:06;;;;;;;0.00;0.00;;;;;;;19.21;60.34;101879.56;5109609;28;20400;-80
2022/08/27 01:44:42;;;;;;;0.75;0.75;;;;;;;19.25;60.42;101875.81;5100501;28;20036;-77
2022/08/27 01:47:09;;;;;;;0.08;0.08;;;;;;;19.21;60.88;101879.56;5108794;28;20031;-78
2022/08/27 01:49:35;;;;;;;0.10;0.10;;;;;;;19.26;59.88;101871.34;5101601;28;20114;-78
2022/08/27 01:52:02;;;;;;;0.10;0.10;;;;;;;19.25;60.20;101873.13;5100619;28;20032;-77
2022/08/27 01:54:30;;;;;;;0.00;0.00;;;;;;;19.31;59.64;101870.19;5111500;28;20048;-78
2022/08/27 01:56:57;;;;;;;0.10;0.10;;;;;;;19.31;59.65;101880.94;5112822;28;20027;-78
2022/08/27 01:59:24;;;;;;;0.10;0.10;;;;;;;19.31;59.96;101875.56;5108185;27;20454;-77
2022/08/27 02:01:52;;;;;;;0.10;0.10;;;;;;;19.31;59.80;101870.19;5108233;28;20022;-77
2022/08/27 02:04:18;;;;;;;0.10;0.10;;;;;;;19.29;59.86;101871.19;5113415;28;20417;-77
2022/08/27 02:06:45;;;;;;;0.10;0.10;;;;;;;19.25;59.67;101865.06;5107041;28;20092;-77
2022/08/27 02:09:12;;;;;;;0.10;0.10;;;;;;;19.20;59.80;101865.28;5098420;28;20071;-77
2022/08/27 02:11:38;;;;;;;0.13;0.13;;;;;;;19.16;59.30;101857.41;5112184;28;20024;-77
2022/08/27 02:14:04;;;;;;;0.10;0.10;;;;;;;19.13;60.19;101861.09;5104101;28;20024;-77
2022/08/27 02:16:31;;;;;;;0.10;0.10;;;;;;;19.11;60.27;101864.78;5103603;28;20032;-76
2022/08/27 02:18:58;;;;;;;0.55;0.55;;;;;;;19.08;60.13;101858.56;5101789;28;20077;-78
2022/08/27 02:21:25;;;;;;;0.10;0.10;;;;;;;19.06;60.17;101864.94;5110770;28;20039;-77
2022/08/27 02:23:53;;;;;;;0.00;0.00;;;;;;;19.02;60.13;101856.13;5111824;28;20035;-77
2022/08/27 02:26:19;;;;;;;0.10;0.10;;;;;;;19.00;59.73;101863.34;5108032;27;20047;-76
2022/08/27 02:28:45;;;;;;;0.13;0.13;;;;;;;18.96;60.18;101853.69;5102343;28;20381;-77
2022/08/27 02:31:11;;;;;;;0.10;0.10;;;;;;;18.97;60.09;101860.81;5106479;28;20035;-76
2022/08/27 02:33:38;;;;;;;0.10;0.10;;;;;;;18.94;60.33;101852.88;5103014;28;20028;-77
2022/08/27 02:36:05;;;;;;;0.03;0.03;;;;;;;18.93;60.63;101853.81;5092538;28;20062;-77
2022/08/27 02:38:31;;;;;;;0.10;0.10;;;;;;;18.89;60.46;101847.66;5084419;28;20095;-76
2022/08/27 02:40:57;;;;;;;0.10;0.10;;;;;;;18.87;60.23;101848.66;5096585;28;20110;-77
2022/08/27 02:43:23;;;;;;;0.10;0.10;;;;;;;18.83;60.21;101847.91;5091185;28;20386;-77
2022/08/27 02:45:50;;;;;;;0.10;0.10;;;;;;;18.79;60.49;101854.31;5089571;28;20028;-76
2022/08/27 02:48:16;;;;;;;0.10;0.10;;;;;;;18.77;60.73;101850.81;5092530;28;20024;-77
2022/08/27 02:50:44;;;;;;;0.10;0.10;;;;;;;18.73;60.91;101852.75;5094753;28;20054;-78
2022/08/27 02:53:10;;;;;;;0.22;0.22;;;;;;;18.71;60.60;101849.22;5102679;28;20448;-77
2022/08/27 02:55:36;;;;;;;0.10;0.10;;;;;;;18.70;60.48;101843.94;5090583;28;20086;-77
2022/08/27 02:58:03;;;;;;;0.20;0.20;;;;;;;18.66;61.00;101840.47;5099733;28;20031;-78
2022/08/27 03:00:30;;;;;;;0.22;0.22;;;;;;;18.66;61.01;101839.63;5100378;28;20071;-78
2022/08/27 03:02:56;;;;;;;0.20;0.20;;;;;;;18.61;61.35;101839.78;5102817;28;20086;-78
2022/08/27 03:05:24;;;;;;;0.20;0.20;;;;;;;18.62;60.64;101833.50;5102018;28;20036;-77
2022/08/27 03:07:50;;;;;;;0.30;0.30;;;;;;;18.58;61.24;101837.22;5098249;28;20036;-77
2022/08/27 03:10:18;;;;;;;0.10;0.10;;;;;;;18.56;61.20;101839.09;5101660;28;20028;-77
2022/08/27 03:12:44;;;;;;;0.10;0.10;;;;;;;18.53;61.16;101840.06;5094086;28;20083;-78
2022/08/27 03:15:15;;;;;;;0.10;0.10;;;;;;;18.58;60.80;101831.88;5091504;28;20025;-77
2022/08/27 03:20:28;;;;;;;0.10;0.10;;;;;;;18.50;60.98;101834.81;5095020;28;20150;-78
2022/08/27 03:22:58;;;;;;;0.10;0.10;;;;;;;18.47;60.96;101840.31;5100243;28;20086;-77
2022/08/27 03:25:24;;;;;;;0.10;0.10;;;;;;;18.42;61.38;101840.47;5097740;28;20099;-77
2022/08/27 03:27:51;;;;;;;0.10;0.10;;;;;;;18.40;61.22;101842.31;5095973;28;20035;-77
2022/08/27 03:30:20;;;;;;;0.15;0.15;;;;;;;18.40;61.33;101836.09;5092270;28;20521;-77
2022/08/27 03:32:46;;;;;;;0.10;0.10;;;;;;;18.39;61.46;101839.69;5085310;28;20111;-77
2022/08/27 03:35:13;;;;;;;0.10;0.10;;;;;;;18.36;61.48;101837.16;5090036;28;20033;-77
2022/08/27 03:37:40;;;;;;;0.10;0.10;;;;;;;18.35;60.95;101830.03;5088631;28;20040;-78
2022/08/27 03:40:06;;;;;;;0.10;0.10;;;;;;;18.35;61.95;101830.88;5095108;28;20024;-78
2022/08/27 03:42:35;;;;;;;0.10;0.10;;;;;;;18.35;61.66;101840.75;5095807;28;20024;-77
2022/08/27 03:45:01;;;;;;;0.10;0.10;;;;;;;18.32;61.55;101835.50;5095541;28;20047;-77
2022/08/27 03:47:27;;;;;;;0.10;0.10;;;;;;;18.32;61.24;101831.03;5089790;28;20588;-78
2022/08/27 03:49:53;;;;;;;0.10;0.10;;;;;;;18.29;61.56;101836.47;5090356;28;20025;-77
2022/08/27 03:52:20;;;;;;;0.10;0.10;;;;;;;18.32;61.42;101831.03;5098132;28;20035;-77
2022/08/27 03:54:46;;;;;;;0.10;0.10;;;;;;;18.31;61.33;101831.94;5098791;28;20040;-77
2022/08/27 03:57:12;;;;;;;0.10;0.10;;;;;;;18.30;61.26;101837.38;5092527;28;20125;-77
2022/08/27 03:59:38;;;;;;;0.10;0.10;;;;;;;18.28;61.35;101829.38;5095095;28;20040;-78
2022/08/27 04:02:04;;;;;;;0.10;0.10;;;;;;;18.28;61.40;101837.44;5091764;28;20040;-78
2022/08/27 04:04:31;;;;;;;0.20;0.20;;;;;;;18.25;61.55;101835.72;5093295;28;20032;-77
2022/08/27 04:06:57;;;;;;;0.10;0.10;;;;;;;18.25;61.65;101840.22;5097175;28;20028;-76
2022/08/27 04:09:23;;;;;;;0.10;0.10;;;;;;;18.17;61.25;101828.88;5093320;28;20520;-78
2022/08/27 04:11:50;;;;;;;0.00;0.00;;;;;;;18.15;61.80;101833.44;5094182;28;20043;-78
2022/08/27 04:14:16;;;;;;;0.10;0.10;;;;;;;18.14;62.13;101837.06;5090985;28;20035;-78
2022/08/27 04:16:42;;;;;;;0.00;0.00;;;;;;;18.14;61.99;101829.88;5093760;28;20024;-77
2022/08/27 04:19:09;;;;;;;0.10;0.10;;;;;;;18.17;61.71;101831.56;5089570;28;20024;-77
2022/08/27 04:21:36;;;;;;;0.10;0.10;;;;;;;18.16;61.70;101827.16;5086843;28;20055;-76
2022/08/27 04:24:02;;;;;;;0.10;0.10;;;;;;;18.15;61.50;101828.94;5091685;28;20032;-77
2022/08/27 04:26:28;;;;;;;0.10;0.10;;;;;;;18.14;61.72;101829.00;5088380;28;20172;-77
2022/08/27 04:28:56;;;;;;;0.10;0.10;;;;;;;18.13;61.80;101835.28;5087593;28;20111;-77
2022/08/27 04:31:22;;;;;;;0.10;0.10;;;;;;;18.11;62.01;101833.53;5092072;28;20089;-78
2022/08/27 04:33:48;;;;;;;0.10;0.10;;;;;;;18.10;61.89;101842.50;5096894;28;20020;-78
2022/08/27 04:36:16;;;;;;;0.10;0.10;;;;;;;18.09;62.01;101835.41;5093634;28;20027;-78
2022/08/27 04:38:42;;;;;;;0.10;0.10;;;;;;;18.08;61.63;101839.03;5087213;28;20020;-78
2022/08/27 04:41:26;;;;;;;0.10;0.10;;;;;;;18.07;62.03;101839.94;5080943;28;20043;-77
2022/08/27 04:43:56;;;;;;;0.10;0.10;;;;;;;18.09;62.42;101848.84;5077714;28;20116;-77
2022/08/27 04:46:28;;;;;;;0.20;0.20;;;;;;;18.10;62.08;101853.22;5088887;28;20374;-77
2022/08/27 04:48:57;;;;;;;0.10;0.10;;;;;;;18.08;62.29;101854.22;5084469;28;20078;-77
2022/08/27 04:51:24;;;;;;;0.10;0.10;;;;;;;18.07;62.00;101850.69;5080922;28;20378;-77
2022/08/27 04:53:51;;;;;;;0.10;0.10;;;;;;;18.07;61.92;101848.00;5088715;28;20497;-77
2022/08/27 04:56:21;;;;;;;0.10;0.10;;;;;;;18.10;62.05;101852.38;5089063;28;20032;-77
2022/08/27 04:58:49;;;;;;;0.10;0.10;;;;;;;18.11;62.46;101859.50;5094937;28;20033;-77
2022/08/27 05:01:19;;;;;;;0.40;0.40;;;;;;;18.15;62.45;101849.53;5089513;28;20023;-76
2022/08/27 05:03:45;;;;;;;0.10;0.10;;;;;;;18.16;62.49;101862.88;5082841;28;20023;-76
2022/08/27 05:06:12;;;;;;;0.10;0.10;;;;;;;18.19;62.57;101853.84;5081654;28;20085;-76
2022/08/27 05:08:39;;;;;;;0.40;0.40;;;;;;;18.24;62.56;101865.28;5088327;28;20032;-77
2022/08/27 05:11:10;;;;;;;0.10;0.10;;;;;;;18.30;62.36;101859.69;5078716;28;20085;-77
2022/08/27 05:13:37;;;;;;;0.20;0.20;;;;;;;18.36;62.29;101864.84;5082629;28;20685;-76
2022/08/27 05:16:07;;;;;;;0.10;0.10;;;;;;;18.43;62.42;101865.50;5076700;28;20120;-76
2022/08/27 05:18:35;;;;;;;0.00;0.00;;;;;;;18.46;62.28;101856.47;5083813;28;20036;-76
2022/08/27 05:21:01;;;;;;;0.10;0.10;;;;;;;18.51;61.83;101857.16;5077076;28;20036;-76
2022/08/27 05:23:28;;;;;;;0.10;0.10;;;;;;;18.54;61.75;101857.94;5074686;28;20036;-77
2022/08/27 05:25:55;;;;;;;0.10;0.10;;;;;;;18.58;62.12;101864.06;5085599;28;20032;-77
2022/08/27 05:28:24;;;;;;;0.10;0.10;;;;;;;18.63;61.98;101861.19;5081538;28;20028;-76
2022/08/27 05:30:53;;;;;;;0.10;0.10;;;;;;;18.66;61.90;101861.94;5087413;28;20028;-77
2022/08/27 05:33:23;;;;;;;0.08;0.08;;;;;;;18.67;61.74;101866.41;5088105;28;20039;-78
2022/08/27 05:35:53;;;;;;;0.10;0.10;;;;;;;18.70;61.85;101860.88;5092280;28;20039;-77
2022/08/27 05:38:19;;;;;;;0.30;0.30;;;;;;;18.71;61.47;101861.78;5094745;28;20099;-77
2022/08/27 05:40:47;;;;;;;0.40;0.30;;;;;;;18.71;61.53;101865.34;5089539;28;20027;-78
2022/08/27 05:43:15;;;;;;;0.10;0.10;;;;;;;18.74;61.53;101865.22;5095812;28;20028;-78
2022/08/27 05:45:43;;;;;;;0.10;0.10;;;;;;;18.76;61.38;101866.03;5094465;28;20028;-78
2022/08/27 05:48:10;;;;;;;0.10;0.10;;;;;;;18.81;61.49;101865.84;5098957;28;20096;-78
2022/08/27 05:50:37;;;;;;;0.32;0.32;;;;;;;18.86;61.44;101861.19;5092796;28;20024;-78
2022/08/27 05:53:04;;;;;;;0.10;0.10;;;;;;;18.94;61.20;101860.94;5099461;28;20034;-78
2022/08/27 05:55:35;;;;;;;0.10;0.10;;;;;;;19.03;61.23;101855.19;5092919;28;20502;-77
2022/08/27 05:58:01;;;;;;;0.00;0.00;;;;;;;19.13;61.12;101850.34;5100289;28;20096;-78
2022/08/27 06:03:13;;;;;;;0.10;0.10;;;;;;;19.37;60.94;101843.06;5093432;28;20424;-78
2022/08/27 06:05:39;;;;;;;0.10;0.10;;;;;;;19.45;61.05;101847.28;5096533;28;20032;-78
2022/08/27 06:08:05;;;;;;;0.10;0.10;;;;;;;19.55;60.79;101851.31;5088682;28;20096;-77
2022/08/27 06:10:32;;;;;;;0.10;0.10;;;;;;;19.64;60.56;101848.25;5091094;28;20032;-77
2022/08/27 06:12:58;;;;;;;0.10;0.10;;;;;;;19.76;60.31;101859.44;5082717;28;20016;-77
2022/08/27 06:15:24;;;;;;;1.15;1.05;;;;;;;19.89;59.97;101860.69;5084604;28;20160;-77
2022/08/27 06:17:51;;;;;;;0.10;0.10;;;;;;;20.00;59.73;101855.72;5095561;28;20096;-77
2022/08/27 06:20:19;;;;;;;0.22;0.22;;;;;;;20.14;59.66;101854.25;5101361;28;20039;-78
2022/08/27 06:22:45;;;;;;;0.10;0.10;;;;;;;20.19;59.04;101857.59;5097201;28;20020;-78
2022/08/27 06:25:12;;;;;;;0.10;0.10;;;;;;;20.34;58.98;101862.28;5094147;28;20027;-76
2022/08/27 06:27:38;;;;;;;0.10;0.10;;;;;;;20.36;58.86;101849.66;5093202;28;20032;-77
2022/08/27 06:30:04;;;;;;;2.33;0.57;;;;;;;20.46;58.79;101849.22;5095361;28;20096;-77
2022/08/27 06:32:30;;;;;;;0.10;0.10;;;;;;;20.52;58.42;101855.22;5091435;28;20493;-77
2022/08/27 06:34:56;;;;;;;0.15;0.15;;;;;;;20.56;57.76;101855.06;5095432;28;20515;-78
2022/08/27 06:37:23;;;;;;;0.15;0.15;;;;;;;20.65;57.86;101860.88;5096448;28;20119;-77
2022/08/27 06:39:50;;;;;;;0.10;0.10;;;;;;;20.73;57.59;101857.00;5097410;28;20035;-78
2022/08/27 06:42:16;;;;;;;0.10;0.10;;;;;;;20.84;57.38;101860.06;5103602;28;20035;-77
2022/08/27 06:44:43;;;;;;;0.20;0.20;;;;;;;20.93;57.52;101856.91;5103678;28;20028;-77
2022/08/27 06:47:10;;;;;;;0.10;0.10;;;;;;;21.07;57.53;101866.16;5102896;28;20123;-77
2022/08/27 06:49:39;;;;;;;0.17;0.17;;;;;;;21.17;57.49;101856.69;5094186;28;21309;-78
2022/08/27 06:52:05;;;;;;;0.10;0.10;;;;;;;21.22;56.96;101854.66;5093325;28;20557;-78
2022/08/27 06:54:32;;;;;;;0.13;0.13;;;;;;;21.23;57.01;101851.00;5092221;28;20040;-78
2022/08/27 06:57:02;;;;;;;0.10;0.10;;;;;;;21.30;56.57;101862.38;5098353;28;20464;-78
2022/08/27 06:59:28;;;;;;;0.57;0.57;;;;;;;21.35;56.35;101863.00;5097356;28;20027;-77
2022/08/27 07:01:55;;;;;;;1.40;0.75;;;;;;;21.42;56.70;101867.16;5095581;28;20020;-77
2022/08/27 07:04:23;;;;;;;0.43;0.43;;;;;;;21.49;56.03;101867.72;5100242;28;20020;-77
2022/08/27 07:06:49;;;;;;;0.30;0.30;;;;;;;21.57;56.41;101859.25;5096299;28;20036;-78
2022/08/27 07:09:15;;;;;;;0.28;0.28;;;;;;;21.63;56.21;101862.53;5091622;28;20040;-78
2022/08/27 07:11:42;;;;;;;0.10;0.10;;;;;;;21.77;56.31;101860.94;5096557;28;20025;-78
2022/08/27 07:14:08;;;;;;;0.10;0.10;;;;;;;21.90;56.33;101861.22;5098439;28;20031;-79
2022/08/27 07:16:35;;;;;;;0.10;0.10;;;;;;;21.96;55.99;101859.06;5098157;28;20027;-77
2022/08/27 07:19:04;;;;;;;0.10;0.10;;;;;;;22.11;56.04;101854.69;5095707;28;20062;-78
2022/08/27 07:21:32;;;;;;;0.10;0.10;;;;;;;22.14;55.08;101861.75;5100276;28;20020;-78
2022/08/27 07:24:03;;;;;;;0.10;0.10;;;;;;;22.23;55.11;101849.56;5096576;28;20070;-78
2022/08/27 07:26:29;;;;;;;0.55;0.55;;;;;;;22.32;55.57;101850.91;5102599;28;20032;-78
2022/08/27 07:28:55;;;;;;;0.47;0.47;;;;;;;22.41;55.12;101858.56;5097204;28;20032;-77
2022/08/27 07:31:22;;;;;;;0.10;0.10;;;;;;;22.53;55.15;101857.91;5094765;28;20028;-77
2022/08/27 07:33:49;;;;;;;0.10;0.10;;;;;;;22.57;53.45;101862.16;5095423;28;20025;-78
2022/08/27 07:36:15;;;;;;;0.10;0.10;;;;;;;22.71;54.62;101868.66;5093464;28;20020;-78
2022/08/27 07:38:41;;;;;;;0.10;0.10;;;;;;;22.77;54.05;101862.91;5094671;28;20046;-75
2022/08/27 07:41:10;;;;;;;0.20;0.20;;;;;;;22.83;53.38;101872.47;5084795;28;20038;-76
2022/08/27 07:46:24;;;;;;;0.63;0.63;;;;;;;22.89;52.89;101878.44;5087893;28;20115;-76
2022/08/27 07:48:51;;;;;;;0.10;0.10;;;;;;;22.99;53.22;101877.91;5084000;28;20035;-76
2022/08/27 07:51:20;;;;;;;0.10;0.10;;;;;;;23.02;53.48;101875.06;5084081;28;20050;-77
2022/08/27 07:53:46;;;;;;;0.10;0.10;;;;;;;23.02;52.69;101875.91;5083728;28;20032;-76
2022/08/27 07:56:13;;;;;;;0.38;0.38;;;;;;;23.08;52.61;101874.72;5083697;28;20032;-76
2022/08/27 07:58:40;;;;;;;0.10;0.10;;;;;;;23.11;52.80;101874.50;5078178;28;20028;-77
2022/08/27 08:01:07;;;;;;;0.10;0.10;;;;;;;23.16;53.31;101880.56;5076896;28;20020;-76
2022/08/27 08:03:34;;;;;;;0.20;0.20;;;;;;;23.25;52.52;101885.47;5081876;28;20024;-77
2022/08/27 08:06:16;;;;;;;0.75;0.75;;;;;;;23.45;52.29;101886.13;5081636;28;20088;-77
2022/08/27 08:08:44;;;;;;;0.10;0.10;;;;;;;23.44;51.95;101881.69;5080232;28;20040;-81
2022/08/27 08:11:12;;;;;;;0.10;0.10;;;;;;;23.48;51.97;101885.97;5082159;28;20115;-81
2022/08/27 08:13:38;;;;;;;0.10;0.10;;;;;;;23.65;52.24;101892.22;5078803;28;20028;-79
2022/08/27 08:16:05;;;;;;;0.10;0.10;;;;;;;23.76;52.31;101892.44;5078475;28;20036;-80
2022/08/27 08:18:33;;;;;;;0.10;0.10;;;;;;;23.91;51.64;101893.38;5083551;28;20031;-79
2022/08/27 08:21:03;;;;;;;0.10;0.10;;;;;;;23.99;50.67;101890.22;5086815;28;20224;-79
2022/08/27 08:23:29;;;;;;;0.38;0.38;;;;;;;24.09;49.28;101894.13;5097290;28;20036;-78
2022/08/27 08:25:56;;;;;;;20.17;1.35;;;;;;;24.06;47.89;101897.00;5088477;28;20055;-75
2022/08/27 08:28:23;;;;;;;0.10;0.10;;;;;;;24.08;48.22;101897.81;5087655;28;20020;-78
2022/08/27 08:30:50;;;;;;;0.10;0.10;;;;;;;24.01;46.98;101893.72;5086415;28;20069;-80
2022/08/27 08:33:16;;;;;;;0.57;0.57;;;;;;;24.05;46.96;101889.84;5098894;28;20390;-78
2022/08/27 08:35:45;;;;;;;0.20;0.20;;;;;;;24.05;47.32;101897.97;5102174;28;20039;-79
2022/08/27 08:38:11;;;;;;;0.10;0.10;;;;;;;24.05;47.31;101900.69;5116174;28;20085;-78
2022/08/27 08:40:42;;;;;;;0.10;0.10;;;;;;;24.10;47.45;101898.59;5121460;28;20028;-79
2022/08/27 08:43:30;;;;;;;0.10;0.10;;;;;;;24.11;46.03;101900.31;5092875;28;20039;-78
2022/08/27 08:46:01;;;;;;;0.10;0.10;;;;;;;24.14;45.28;101902.84;5097876;28;20024;-79
2022/08/27 08:48:28;;;;;;;0.10;0.10;;;;;;;24.14;45.66;101904.66;5103320;28;20031;-78
2022/08/27 08:51:19;;;;;;;0.10;0.10;;;;;;;24.37;44.99;101896.03;5094909;28;20434;-78
2022/08/27 08:56:34;;;;;;;0.10;0.10;;;;;;;24.59;45.39;101904.66;5138488;27;1194590;-77
2022/08/27 08:59:14;;;;;;;0.10;0.10;;;;;;;24.66;45.25;101900.59;5182836;27;20423;-76
2022/08/27 09:01:41;;;;;;;0.10;0.10;;;;;;;24.78;45.54;101898.97;5146031;27;20035;-77
2022/08/27 09:04:10;;;;;;;0.10;0.10;;;;;;;24.77;45.46;101906.22;5142303;27;22009;-78
2022/08/27 09:06:59;;;;;;;0.30;0.30;;;;;;;24.84;45.40;101904.84;5135625;27;20019;-76
2022/08/27 09:09:34;;;;;;;0.10;0.10;;;;;;;24.78;45.79;101901.69;5138408;27;20034;-76
2022/08/27 09:12:10;;;;;;;1.17;1.08;;;;;;;24.82;45.97;101905.94;5139809;27;20484;-76
2022/08/27 09:17:33;;;;;;;0.10;0.10;;;;;;;24.76;45.61;101909.03;5057567;28;20417;-76
2022/08/27 09:20:00;;;;;;;0.10;0.10;;;;;;;24.72;45.72;101911.06;5047351;28;20029;-76
2022/08/27 09:22:53;;;;;;;0.00;0.00;;;;;;;24.65;44.30;101906.97;5045823;28;20123;-77
2022/08/27 09:25:30;;;;;;;0.10;0.10;;;;;;;24.73;44.95;101912.81;5051811;28;20496;-76
2022/08/27 09:28:03;;;;;;;0.10;0.10;;;;;;;24.69;43.58;101911.25;5049566;28;20368;-76
2022/08/27 09:30:40;;;;;;;0.10;0.10;;;;;;;24.76;44.74;101918.03;5062653;28;20059;-77
2022/08/27 09:33:06;;;;;;;0.10;0.10;;;;;;;24.64;44.61;101913.38;5065530;28;20049;-78
2022/08/27 09:35:45;;;;;;;0.10;0.10;;;;;;;24.76;44.26;101922.56;5064240;28;20028;-80
2022/08/27 09:38:30;;;;;;;0.10;0.10;;;;;;;24.74;44.58;101919.13;5066551;28;20029;-80
2022/08/27 09:41:01;;;;;;;0.10;0.10;;;;;;;24.66;43.79;101922.28;5049656;28;20039;-82
2022/08/27 09:43:30;;;;;;;0.43;0.43;;;;;;;24.68;44.35;101917.66;5054956;28;20021;-78
2022/08/27 09:46:04;;;;;;;0.10;0.10;;;;;;;24.46;45.19;101918.97;5056214;28;20057;-78
2022/08/27 09:48:34;;;;;;;0.10;0.10;;;;;;;24.52;44.46;101910.47;5057569;28;20037;-78
2022/08/27 09:51:07;;;;;;;0.30;0.30;;;;;;;24.68;44.05;101912.22;5046089;28;20057;-79
2022/08/27 09:53:43;;;;;;;0.30;0.30;;;;;;;24.77;44.34;101908.06;5049455;28;20041;-80
2022/08/27 09:56:20;;;;;;;0.20;0.20;;;;;;;24.80;44.52;101903.31;5056296;28;20059;-79
2022/08/27 09:58:54;;;;;;;0.05;0.05;;;;;;;24.82;44.88;101909.53;5046512;28;20125;-79
2022/08/27 10:01:25;;;;;;;0.75;0.75;;;;;;;24.79;44.81;101909.69;5044858;28;20033;-78
2022/08/27 10:04:11;;;;;;;0.08;0.08;;;;;;;24.84;43.59;101904.00;5045261;28;20025;-79
2022/08/27 10:06:44;;;;;;;0.40;0.40;;;;;;;24.84;44.43;101904.00;5051430;28;20036;-78
2022/08/27 10:12:05;;;;;;;0.32;0.32;;;;;;;25.04;44.09;101910.84;5092930;27;20415;-75
2022/08/27 10:14:38;;;;;;;0.10;0.10;;;;;;;25.03;44.48;101909.09;5086410;28;20573;-78
2022/08/27 10:20:17;;;;;;;0.08;0.08;;;;;;;25.19;43.87;101907.13;5051499;28;20412;-79
2022/08/27 10:31:39;;;;;;;0.10;0.10;;;;;;;24.54;45.51;101908.50;5064911;28;21110;-78
2022/08/27 10:34:33;;;;;;;0.10;0.10;;;;;;;24.62;46.27;101904.44;5057479;28;20040;-78
2022/08/27 10:40:14;;;;;;;0.10;0.10;;;;;;;25.23;45.09;101905.09;5073211;28;20473;-79
2022/08/27 10:54:22;;;;;;;0.10;0.10;;;;;;;25.83;43.55;101920.13;5125771;27;20558;-77
2022/08/27 10:57:12;;;;;;;0.10;0.10;;;;;;;25.88;43.48;101918.94;5074809;28;20120;-78
2022/08/27 11:00:10;;;;;;;0.10;0.10;;;;;;;26.03;43.37;101911.59;5072683;28;20124;-78
2022/08/27 11:02:46;;;;;;;0.10;0.10;;;;;;;26.10;44.26;101911.09;5070758;28;20035;-79
2022/08/27 11:10:44;;;;;;;0.10;0.10;;;;;;;26.21;43.07;101913.06;5076417;28;20402;-78
2022/08/27 11:13:13;;;;;;;;;;;;;;;26.45;42.96;101910.47;5064095;28;20033;-79
2022/08/27 11:15:45;;;;;;;0.10;0.10;;;;;;;26.42;42.72;101907.97;5052656;28;20333;-78
2022/08/27 11:18:21;;;;;;;0.10;0.10;;;;;;;26.52;43.68;101893.72;5054578;28;20032;-78
2022/08/27 11:26:06;;;;;;;0.10;0.10;;;;;;;27.07;41.99;101887.03;5109499;27;20436;-78
2022/08/27 11:28:38;;;;;;;0.10;0.10;;;;;;;27.18;41.26;101896.25;5116678;28;20028;-79
2022/08/27 11:33:52;;;;;;;0.00;0.00;;;;;;;27.23;39.90;101888.66;5136973;27;20350;-79
2022/08/27 11:36:48;;;;;;;0.20;0.20;;;;;;;27.32;40.41;101882.50;5136987;28;20561;-80
2022/08/27 11:42:18;;;;;;;0.10;0.10;;;;;;;27.42;40.68;101886.28;5103402;27;20413;-79
2022/08/27 11:44:48;;;;;;;0.00;0.00;;;;;;;27.41;40.47;101881.81;5096889;28;20043;-79
2022/08/27 11:47:20;;;;;;;0.10;0.10;;;;;;;27.44;40.56;101886.16;5097002;28;20065;-78
2022/08/27 11:49:53;;;;;;;0.05;0.05;;;;;;;27.39;40.44;101885.63;5103644;28;20025;-78
2022/08/27 11:52:25;;;;;;;0.05;0.05;;;;;;;27.34;40.41;101885.09;5091143;28;20032;-78
2022/08/27 11:55:07;;;;;;;0.00;0.00;;;;;;;27.33;38.42;101884.25;5085233;28;20430;-78
2022/08/27 11:57:35;;;;;;;0.10;0.10;;;;;;;27.22;38.54;101882.31;5093634;28;20035;-78
2022/08/27 12:00:32;;;;;;;0.10;0.10;;;;;;;27.43;40.07;101887.19;5094623;28;20074;-77
2022/08/27 12:05:45;;;;;;;0.25;0.25;;;;;;;27.34;39.20;101895.97;5094711;27;20401;-80
2022/08/27 12:11:28;;;;;;;0.10;0.10;;;;;;;27.42;40.09;101889.00;5060786;28;20390;-78
2022/08/27 12:14:24;;;;;;;0.10;0.10;;;;;;;27.47;40.04;101877.78;5055016;28;20442;-79
2022/08/27 12:20:04;;;;;;;0.10;0.10;;;;;;;27.62;39.09;101883.06;5135486;27;20418;-78
2022/08/27 12:25:23;;;;;;;0.63;0.63;;;;;;;27.36;38.52;101881.28;5108811;27;20418;-79
2022/08/27 12:28:02;;;;;;;0.13;0.13;;;;;;;27.26;39.20;101874.78;5091587;28;20051;-80
2022/08/27 12:30:34;;;;;;;0.10;0.10;;;;;;;27.03;40.15;101877.38;5089263;28;20106;-80
2022/08/27 12:33:26;;;;;;;0.10;0.10;;;;;;;27.32;39.51;101878.91;5068134;28;20086;-81
2022/08/27 12:35:55;;;;;;;0.20;0.20;;;;;;;27.60;39.10;101874.97;5076147;28;20055;-81
2022/08/27 12:38:47;;;;;;;0.10;0.10;;;;;;;27.77;37.44;101871.84;5063534;28;20071;-80
2022/08/27 12:41:27;;;;;;;0.00;0.00;;;;;;;28.14;38.46;101869.97;5060961;28;20460;-83
2022/08/27 12:44:21;;;;;;;0.10;0.10;;;;;;;28.12;36.35;101867.38;5072895;28;20022;-84
2022/08/27 12:49:56;;;;;;;0.15;0.15;;;;;;;27.99;37.68;101867.47;5097434;27;20380;-82
2022/08/27 12:52:57;;;;;;;0.05;0.05;;;;;;;27.90;36.86;101860.00;5108140;28;20035;-84